Time;durP1;ratioP1;P1;durP2;ratioP2;P2;SDS_P1;SDS_P2;PMS_P1;PMS_P2;Temp;Humidity;BMP_temperature;BMP_pressure;BME280_temperature;BME280_humidity;BME280_pressure;Samples;Min_cycle;Max_cycle;Signal;HPM_P1;HPM_P2
2023/03/12 00:01:38;;;;;;;;;;;;;;;-2.45;82.51;99604.78;134318;1296;22459;-78
2023/03/12 00:04:44;;;;;;;;;;;;;;;-2.43;82.63;99595.48;134282;1297;22442;-76
2023/03/12 00:07:50;;;;;;;;;;;;;;;-2.41;82.53;99594.15;134343;1297;22472;-77
2023/03/12 00:11:10;;;;;;;;;;;;;;;-2.40;82.64;99590.60;134293;1298;22454;-76
2023/03/12 00:14:31;;;;;;;;;;;;;;;-2.38;82.81;99591.23;134238;1298;22473;-80
2023/03/12 00:18:01;;;;;;;;;;;;;;;-2.38;82.98;99589.45;134193;1296;23128;-77
2023/03/12 00:21:08;;;;;;;;;;;;;;;-2.37;82.93;99585.27;134363;1294;22425;-80
2023/03/12 00:24:11;;;;;;;;;;;;;;;-2.36;83.05;99586.91;134227;1297;23199;-77
2023/03/12 00:27:25;;;;;;;;;;;;;;;;;;;;;
2023/03/12 00:30:39;;;;;;;;;;;;;;;-2.35;82.86;99583.92;134355;1297;22548;-76
2023/03/12 00:33:49;;;;;;;;;;;;;;;;;;;;;
2023/03/12 00:37:32;;;;;;;;;;;;;;;-2.33;82.90;99583.40;134087;1298;22473;-77
2023/03/12 00:40:52;;;;;;;;;;;;;;;;;;;;;
2023/03/12 00:44:25;;;;;;;;;;;;;;;;;;;;;
2023/03/12 00:47:26;;;;;;;;;;;;;;;-2.32;82.92;99586.66;134293;1298;22445;-77
2023/03/12 00:50:27;;;;;;;;;;;;;;;-2.33;83.08;99585.17;134338;1298;22479;-78
2023/03/12 00:54:01;;;;;;;;;;;;;;;-2.34;82.94;99583.83;134352;1298;22602;-83
2023/03/12 00:57:04;;;;;;;;;;;;;;;-2.34;83.09;99584.02;134316;1297;22521;-77
2023/03/12 01:00:09;;;;;;;;;;;;;;;-2.34;82.81;99584.35;134157;1300;22430;-78
2023/03/12 01:03:40;;;;;;;;;;;;;;;;;;;;;
2023/03/12 01:07:25;;;;;;;;;;;;;;;-2.36;82.97;99583.43;134352;1297;22452;-77
2023/03/12 01:10:29;;;;;;;;;;;;;;;-2.35;82.85;99585.30;134331;1298;22453;-79
2023/03/12 01:13:53;;;;;;;;;;;;;;;-2.36;82.97;99580.14;134339;1297;22486;-77
2023/03/12 01:17:06;;;;;;;;;;;;;;;-2.36;83.21;99579.66;134154;1298;22498;-77
2023/03/12 01:20:08;;;;;;;;;;;;;;;-2.38;83.11;99582.50;134338;1298;22447;-80
2023/03/12 01:23:08;;;;;;;;;;;;;;;-2.40;83.11;99580.56;134341;1301;22426;-83
2023/03/12 01:26:18;;;;;;;;;;;;;;;-2.39;83.01;99577.75;134311;1297;23416;-77
2023/03/12 01:29:18;;;;;;;;;;;;;;;-2.37;82.98;99574.13;134157;1296;23090;-83
2023/03/12 01:36:51;;;;;;;;;;;;;;;;;;;;;
2023/03/12 01:40:02;;;;;;;;;;;;;;;-2.36;83.23;99566.61;134294;1297;23180;-77
2023/03/12 01:43:38;;;;;;;;;;;;;;;-2.35;83.05;99571.90;134186;1298;23230;-77
2023/03/12 01:47:46;;;;;;;;;;;;;;;-2.34;82.92;99573.58;134238;1298;22503;-77
2023/03/12 01:54:55;;;;;;;;;;;;;;;-2.31;82.94;99572.35;134328;1297;23215;-77
2023/03/12 01:58:21;;;;;;;;;;;;;;;;;;;;;
2023/03/12 02:01:25;;;;;;;;;;;;;;;-2.28;82.61;99583.62;134254;1298;22463;-79
2023/03/12 02:08:28;;;;;;;;;;;;;;;-2.21;82.55;99584.05;134254;1298;22457;-77
2023/03/12 02:11:37;;;;;;;;;;;;;;;-2.19;82.88;99584.81;134145;1298;22460;-77
2023/03/12 02:14:40;;;;;;;;;;;;;;;-2.18;82.38;99589.05;134203;1303;26169;-76
2023/03/12 02:18:36;;;;;;;;;;;;;;;-2.16;82.43;99588.58;134259;1298;22448;-78
2023/03/12 02:21:53;;;;;;;;;;;;;;;-2.14;82.16;99595.72;134060;1298;22535;-77
2023/03/12 02:25:37;;;;;;;;;;;;;;;;;;;;;
2023/03/12 02:29:12;;;;;;;;;;;;;;;;;;;;;
2023/03/12 02:33:02;;;;;;;;;;;;;;;;;;;;;
2023/03/12 02:40:44;;;;;;;;;;;;;;;;;;;;;
2023/03/12 02:44:45;;;;;;;;;;;;;;;;;;;;;
2023/03/12 02:47:49;;;;;;;;;;;;;;;-2.12;81.67;99603.91;134140;1298;22446;-77
2023/03/12 02:51:08;;;;;;;;;;;;;;;;;;;;;
2023/03/12 02:54:37;;;;;;;;;;;;;;;-2.09;81.54;99603.55;134106;1297;22434;-77
2023/03/12 03:01:32;;;;;;;;;;;;;;;-2.06;81.36;99610.98;133906;1297;22534;-77
2023/03/12 03:04:34;;;;;;;;;;;;;;;-2.05;81.07;99611.24;134157;1297;22460;-81
2023/03/12 03:07:41;;;;;;;;;;;;;;;-2.03;81.02;99615.65;134123;1302;22448;-78
2023/03/12 03:10:49;;;;;;;;;;;;;;;-2.01;80.88;99619.65;133958;1305;22526;-77
2023/03/12 03:13:53;;;;;;;;;;;;;;;-1.99;80.95;99619.75;134121;1297;22905;-78
2023/03/12 03:21:16;;;;;;;;;;;;;;;;;;;;;
2023/03/12 03:24:51;;;;;;;;;;;;;;;-1.99;80.76;99631.16;134119;1298;22518;-77
2023/03/12 03:28:57;;;;;;;;;;;;;;;-1.99;80.72;99631.16;134105;1297;22494;-76
2023/03/12 03:32:14;;;;;;;;;;;;;;;-1.98;80.44;99636.16;133938;1298;23171;-76
2023/03/12 03:35:58;;;;;;;;;;;;;;;;;;;;;
2023/03/12 03:39:31;;;;;;;;;;;;;;;;;;;;;
2023/03/12 03:43:32;;;;;;;;;;;;;;;-1.97;80.14;99642.80;134301;1298;22475;-76
2023/03/12 03:46:58;;;;;;;;;;;;;;;-1.98;80.07;99647.37;134266;1302;23286;-76
2023/03/12 03:50:40;;;;;;;;;;;;;;;-1.99;80.07;99650.89;134253;1298;22573;-77
2023/03/12 03:57:49;;;;;;;;;;;;;;;-1.98;79.86;99650.48;134016;1298;23968;-77
2023/03/12 04:01:01;;;;;;;;;;;;;;;-1.96;79.98;99658.03;134029;1299;22430;-79
2023/03/12 04:04:02;;;;;;;;;;;;;;;-1.96;79.79;99663.40;134058;1298;23222;-78
2023/03/12 04:07:37;;;;;;;;;;;;;;;;;;;;;
2023/03/12 04:15:35;;;;;;;;;;;;;;;-1.92;79.52;99669.38;134078;1298;22458;-78
2023/03/12 04:18:48;;;;;;;;;;;;;;;-1.91;79.16;99669.13;134197;1302;22428;-77
2023/03/12 04:21:49;;;;;;;;;;;;;;;-1.89;79.39;99672.28;134108;1304;22453;-77
2023/03/12 04:25:29;;;;;;;;;;;;;;;-1.85;79.49;99672.55;134278;1297;22570;-77
2023/03/12 04:28:50;;;;;;;;;;;;;;;-1.79;79.29;99678.60;134067;1295;22455;-77
2023/03/12 04:32:15;;;;;;;;;;;;;;;-1.74;79.30;99676.20;134286;1296;22880;-77
2023/03/12 04:35:26;;;;;;;;;;;;;;;;;;;;;
2023/03/12 04:38:27;;;;;;;;;;;;;;;-1.60;78.97;99690.90;134151;1300;22438;-78
2023/03/12 04:41:31;;;;;;;;;;;;;;;-1.53;78.95;99696.33;134088;1301;22526;-77
2023/03/12 04:44:52;;;;;;;;;;;;;;;-1.48;78.99;99701.20;134125;1298;22461;-82
2023/03/12 04:47:55;;;;;;;;;;;;;;;-1.45;78.55;99703.97;134280;1297;23884;-80
2023/03/12 04:51:01;;;;;;;;;;;;;;;-1.42;78.47;99704.46;134198;1298;22446;-80
2023/03/12 04:54:02;;;;;;;;;;;;;;;-1.37;78.43;99705.88;134103;1298;23218;-77
2023/03/12 04:57:06;;;;;;;;;;;;;;;-1.34;78.12;99711.55;134042;1298;22447;-80
2023/03/12 05:00:31;;;;;;;;;;;;;;;-1.30;78.08;99713.77;134045;1300;23701;-77
2023/03/12 05:10:45;;;;;;;;;;;;;;;-1.19;77.49;99717.20;134031;1299;22450;-77
2023/03/12 05:13:48;;;;;;;;;;;;;;;-1.17;77.30;99720.83;134125;1299;22504;-77
2023/03/12 05:17:13;;;;;;;;;;;;;;;-1.14;77.15;99724.11;134247;1298;22425;-79
2023/03/12 05:20:34;;;;;;;;;;;;;;;-1.12;76.89;99728.20;134060;1298;23211;-77
2023/03/12 05:23:57;;;;;;;;;;;;;;;;;;;;;
2023/03/12 05:27:16;;;;;;;;;;;;;;;-1.10;76.49;99732.71;134291;1299;22482;-77
2023/03/12 05:30:19;;;;;;;;;;;;;;;-1.09;76.18;99730.26;134278;1292;23184;-77
2023/03/12 05:33:25;;;;;;;;;;;;;;;-1.11;76.27;99738.39;134334;1297;22445;-78
2023/03/12 05:36:59;;;;;;;;;;;;;;;-1.13;76.12;99740.19;134029;1297;22475;-77
2023/03/12 05:40:13;;;;;;;;;;;;;;;-1.11;75.95;99745.08;133941;1299;22507;-77
2023/03/12 05:43:29;;;;;;;;;;;;;;;-1.07;75.96;99752.35;133957;1300;22457;-77
2023/03/12 05:46:51;;;;;;;;;;;;;;;-1.05;75.86;99754.60;134167;1299;22465;-77
2023/03/12 05:50:10;;;;;;;;;;;;;;;;;;;;;
2023/03/12 05:54:26;;;;;;;;;;;;;;;-0.94;75.57;99755.61;134064;1299;22478;-78
2023/03/12 05:57:22;;;;;;;;;;;;;;;-0.38;75.10;99748.70;133986;1298;22482;-77
2023/03/12 06:00:28;;;;;;;;;;;;;;;0.10;74.64;99752.80;134070;1299;22503;-79
2023/03/12 06:03:29;;;;;;;;;;;;;;;0.56;74.59;99751.07;133821;1298;22434;-82
2023/03/12 06:06:34;;;;;;;;;;;;;;;1.00;73.78;99760.58;133968;1304;22454;-78
2023/03/12 06:10:09;;;;;;;;;;;;;;;1.37;73.02;99763.68;134210;1298;22466;-79
2023/03/12 06:13:50;;;;;;;;;;;;;;;1.51;71.51;99764.73;134232;1297;23261;-79
2023/03/12 06:17:14;;;;;;;;;;;;;;;1.21;71.19;99769.23;134178;1297;22479;-79
2023/03/12 06:20:24;;;;;;;;;;;;;;;1.37;70.55;99768.71;134309;1297;22456;-79
2023/03/12 06:23:27;;;;;;;;;;;;;;;1.62;70.14;99779.23;134096;1298;22552;-79
2023/03/12 06:26:44;;;;;;;;;;;;;;;;;;;;;
2023/03/12 06:29:51;;;;;;;;;;;;;;;2.16;69.63;99784.40;134115;1298;22474;-79
2023/03/12 06:33:08;;;;;;;;;;;;;;;2.42;68.72;99786.35;134137;1298;22442;-79
2023/03/12 06:36:39;;;;;;;;;;;;;;;2.70;69.44;99783.39;134142;1298;22464;-78
2023/03/12 06:40:48;;;;;;;;;;;;;;;3.07;68.34;99785.62;134025;1301;22524;-78
2023/03/12 06:43:39;;;;;;;;;;;;;;;3.29;67.85;99794.30;134063;1297;22553;-79
2023/03/12 06:46:59;;;;;;;;;;;;;;;3.53;66.82;99798.28;134133;1298;23168;-79
2023/03/12 06:50:03;;;;;;;;;;;;;;;3.50;65.27;99794.46;134119;1298;22458;-80
2023/03/12 06:53:26;;;;;;;;;;;;;;;;;;;;;
2023/03/12 06:56:32;;;;;;;;;;;;;;;2.42;65.46;99806.83;134071;1298;22438;-80
2023/03/12 06:59:32;;;;;;;;;;;;;;;2.01;65.80;99809.48;134199;1297;22455;-81
2023/03/12 07:02:44;;;;;;;;;;;;;;;1.76;66.55;99812.09;134177;1297;23027;-80
2023/03/12 07:05:46;;;;;;;;;;;;;;;1.85;67.05;99815.28;134221;1297;22423;-80
2023/03/12 07:08:50;;;;;;;;;;;;;;;2.28;66.74;99811.61;134148;1298;22421;-80
2023/03/12 07:11:51;;;;;;;;;;;;;;;2.67;66.76;99817.23;134067;1297;23208;-88
2023/03/12 07:14:56;;;;;;;;;;;;;;;3.06;65.65;99821.88;134072;1292;22603;-80
2023/03/12 07:18:04;;;;;;;;;;;;;;;3.27;65.60;99820.16;134161;1297;22458;-80
2023/03/12 07:21:07;;;;;;;;;;;;;;;3.62;65.60;99829.66;134133;1297;22461;-81
2023/03/12 07:24:31;;;;;;;;;;;;;;;3.92;65.07;99835.84;134115;1297;23151;-80
2023/03/12 07:27:40;;;;;;;;;;;;;;;4.04;63.76;99829.09;134118;1297;22418;-80
2023/03/12 07:30:41;;;;;;;;;;;;;;;3.57;63.16;99826.59;134140;1298;22459;-79
2023/03/12 07:33:44;;;;;;;;;;;;;;;3.17;63.77;99837.22;134135;1297;22449;-80
2023/03/12 07:36:45;;;;;;;;;;;;;;;2.87;64.38;99842.98;134250;1297;22499;-80
2023/03/12 07:39:51;;;;;;;;;;;;;;;2.67;64.45;99846.91;134262;1291;22461;-82
2023/03/12 07:42:53;;;;;;;;;;;;;;;2.46;64.36;99853.48;134075;1298;22463;-81
2023/03/12 07:45:54;;;;;;;;;;;;;;;2.28;64.92;99863.24;134137;1297;22520;-81
2023/03/12 07:48:54;;;;;;;;;;;;;;;2.24;65.60;99865.14;134310;1297;23168;-81
2023/03/12 07:51:58;;;;;;;;;;;;;;;2.22;65.48;99864.01;134150;1298;22476;-80
2023/03/12 07:55:04;;;;;;;;;;;;;;;2.22;65.69;99865.09;134043;1297;23229;-81
2023/03/12 07:58:05;;;;;;;;;;;;;;;2.18;65.84;99866.29;134298;1298;22568;-83
2023/03/12 08:01:08;;;;;;;;;;;;;;;2.09;65.56;99864.00;134284;1297;22406;-81
2023/03/12 08:04:09;;;;;;;;;;;;;;;2.30;65.73;99860.12;134344;1295;22462;-81
2023/03/12 08:07:15;;;;;;;;;;;;;;;2.72;65.55;99865.48;134088;1297;22467;-83
2023/03/12 08:10:19;;;;;;;;;;;;;;;3.09;65.23;99865.52;134145;1298;23576;-81
2023/03/12 08:13:21;;;;;;;;;;;;;;;3.15;63.93;99865.21;134140;1298;22434;-80
2023/03/12 08:16:22;;;;;;;;;;;;;;;3.20;64.87;99866.56;134316;1297;22945;-81
2023/03/12 08:19:23;;;;;;;;;;;;;;;3.42;64.33;99867.35;134285;1298;22428;-82
2023/03/12 08:22:26;;;;;;;;;;;;;;;3.78;63.91;99870.64;134198;1298;22447;-80
2023/03/12 08:25:41;;;;;;;;;;;;;;;4.05;63.56;99875.70;134089;1296;22514;-78
2023/03/12 08:28:44;;;;;;;;;;;;;;;4.35;63.14;99872.98;134298;1296;22433;-87
2023/03/12 08:31:57;;;;;;;;;;;;;;;4.65;62.95;99872.30;134332;1291;22479;-82
2023/03/12 08:35:14;;;;;;;;;;;;;;;4.81;62.65;99874.91;134308;1297;22530;-83
2023/03/12 08:38:26;;;;;;;;;;;;;;;4.60;62.32;99879.34;134311;1295;22524;-77
2023/03/12 08:41:30;;;;;;;;;;;;;;;4.64;62.13;99876.59;134314;1297;22537;-76
2023/03/12 08:44:30;;;;;;;;;;;;;;;4.85;61.82;99873.11;134138;1298;22473;-77
2023/03/12 08:47:31;;;;;;;;;;;;;;;4.96;61.71;99871.17;134116;1297;22459;-82
2023/03/12 08:50:32;;;;;;;;;;;;;;;5.10;61.91;99871.92;134148;1294;22420;-74
2023/03/12 08:53:34;;;;;;;;;;;;;;;5.22;61.74;99871.20;134029;1300;22453;-74
2023/03/12 08:56:45;;;;;;;;;;;;;;;5.43;62.09;99876.48;134283;1297;22468;-76
2023/03/12 08:59:46;;;;;;;;;;;;;;;5.60;60.19;99869.23;134168;1296;22454;-74
2023/03/12 09:02:50;;;;;;;;;;;;;;;5.59;60.75;99880.55;134065;1295;22466;-77
2023/03/12 09:06:01;;;;;;;;;;;;;;;5.76;61.29;99882.50;134275;1296;22452;-76
2023/03/12 09:09:07;;;;;;;;;;;;;;;5.90;60.17;99886.82;134191;1297;22441;-77
2023/03/12 09:12:08;;;;;;;;;;;;;;;6.00;60.77;99888.13;134054;1297;22451;-76
2023/03/12 09:15:14;;;;;;;;;;;;;;;6.17;59.57;99878.67;134319;1297;23260;-76
2023/03/12 09:18:15;;;;;;;;;;;;;;;6.29;59.92;99879.52;134233;1297;22477;-76
2023/03/12 09:21:18;;;;;;;;;;;;;;;6.53;60.06;99884.60;134096;1298;23264;-75
2023/03/12 09:24:19;;;;;;;;;;;;;;;6.81;59.91;99882.41;134272;1297;23597;-80
2023/03/12 09:27:22;;;;;;;;;;;;;;;6.97;59.51;99880.86;134074;1298;24396;-76
2023/03/12 09:30:43;;;;;;;;;;;;;;;7.06;58.20;99877.30;134098;1297;22452;-87
2023/03/12 09:34:14;;;;;;;;;;;;;;;7.03;57.69;99885.59;134296;1296;22488;-86
2023/03/12 09:37:31;;;;;;;;;;;;;;;7.05;57.31;99882.20;134103;1297;22508;-86
2023/03/12 09:41:32;;;;;;;;;;;;;;;;;;;;;
2023/03/12 09:44:48;;;;;;;;;;;;;;;6.95;56.13;99884.73;133845;1298;22490;-86
2023/03/12 09:52:30;;;;;;;;;;;;;;;6.72;56.12;99886.77;134157;1298;23224;-87
2023/03/12 09:56:09;;;;;;;;;;;;;;;6.67;56.75;99889.91;134246;1297;22483;-87
2023/03/12 09:59:27;;;;;;;;;;;;;;;6.53;57.09;99888.85;134098;1297;22436;-82
2023/03/12 10:03:08;;;;;;;;;;;;;;;6.85;57.16;99885.20;133778;1300;23382;-87
2023/03/12 10:06:31;;;;;;;;;;;;;;;6.97;56.80;99883.52;133623;1301;22475;-84
2023/03/12 10:10:14;;;;;;;;;;;;;;;;;;;;;
2023/03/12 10:13:29;;;;;;;;;;;;;;;7.29;56.66;99889.67;133529;1301;22461;-86
2023/03/12 10:17:10;;;;;;;;;;;;;;;7.61;56.57;99885.67;133754;1300;22473;-83
2023/03/12 10:20:49;;;;;;;;;;;;;;;7.72;55.62;99879.84;133495;1303;22530;-83
2023/03/12 10:24:15;;;;;;;;;;;;;;;7.68;54.98;99878.49;133630;1301;22488;-79
2023/03/12 10:27:36;;;;;;;;;;;;;;;7.64;55.47;99878.49;133597;1304;22513;-75
2023/03/12 10:30:40;;;;;;;;;;;;;;;7.78;55.41;99875.30;133572;1301;23511;-79
2023/03/12 10:34:06;;;;;;;;;;;;;;;7.83;55.25;99873.95;133570;1302;23243;-77
2023/03/12 10:37:16;;;;;;;;;;;;;;;7.78;54.22;99876.59;133425;1301;22583;-73
2023/03/12 10:40:39;;;;;;;;;;;;;;;7.80;55.35;99880.79;133734;1302;22467;-68
2023/03/12 10:43:40;;;;;;;;;;;;;;;7.97;54.86;99885.59;133864;1300;23210;-74
2023/03/12 10:46:46;;;;;;;;;;;;;;;7.98;54.80;99881.80;134072;1297;23111;-75
2023/03/12 10:50:18;;;;;;;;;;;;;;;;;;;;;
2023/03/12 10:53:33;;;;;;;;;;;;;;;;;;;;;
2023/03/12 10:56:46;;;;;;;;;;;;;;;7.89;54.09;99886.73;134314;1297;22462;-73
2023/03/12 11:00:13;;;;;;;;;;;;;;;7.75;54.05;99883.06;134055;1299;22444;-74
2023/03/12 11:03:28;;;;;;;;;;;;;;;7.81;53.97;99878.59;134314;1296;22430;-80
2023/03/12 11:06:29;;;;;;;;;;;;;;;7.75;54.07;99882.71;134073;1297;22453;-77
2023/03/12 11:10:00;;;;;;;;;;;;;;;;;;;;;
2023/03/12 11:13:25;;;;;;;;;;;;;;;7.68;54.27;99874.02;134290;1297;22906;-77
2023/03/12 11:16:49;;;;;;;;;;;;;;;7.87;55.13;99879.58;134129;1297;22506;-77
2023/03/12 11:19:50;;;;;;;;;;;;;;;8.18;54.17;99870.45;134284;1298;23216;-70
2023/03/12 11:22:53;;;;;;;;;;;;;;;8.02;52.70;99865.14;134307;1297;22457;-78
2023/03/12 11:26:02;;;;;;;;;;;;;;;7.84;53.85;99867.85;134342;1289;22520;-77
2023/03/12 11:29:12;;;;;;;;;;;;;;;7.88;54.02;99866.72;134285;1298;22458;-77
2023/03/12 11:32:56;;;;;;;;;;;;;;;8.02;53.65;99856.52;134267;1296;22468;-73
2023/03/12 11:36:29;;;;;;;;;;;;;;;7.92;53.72;99854.85;134282;1297;22487;-79
2023/03/12 11:40:05;;;;;;;;;;;;;;;7.92;53.63;99845.73;133873;1297;23353;-79
2023/03/12 11:43:25;;;;;;;;;;;;;;;7.92;53.19;99851.88;134265;1296;22443;-80
2023/03/12 11:46:53;;;;;;;;;;;;;;;7.68;52.77;99847.95;134268;1296;22451;-83
2023/03/12 11:50:02;;;;;;;;;;;;;;;7.62;53.57;99846.27;134311;1295;22675;-76
2023/03/12 11:53:25;;;;;;;;;;;;;;;7.69;53.22;99844.07;134292;1297;22477;-76
2023/03/12 11:56:57;;;;;;;;;;;;;;;7.39;52.95;99844.75;133826;1304;22500;-76
2023/03/12 12:00:12;;;;;;;;;;;;;;;7.30;53.49;99850.51;133845;1301;22470;-74
2023/03/12 12:03:36;;;;;;;;;;;;;;;7.32;53.51;99850.55;133827;1298;24868;-77
2023/03/12 12:06:42;;;;;;;;;;;;;;;7.30;53.54;99844.59;133778;1299;23426;-76
2023/03/12 12:09:59;;;;;;;;;;;;;;;7.47;54.33;99844.97;133873;1300;23249;-75
2023/03/12 12:13:07;;;;;;;;;;;;;;;7.73;53.91;99839.18;133875;1307;22470;-76
2023/03/12 12:16:27;;;;;;;;;;;;;;;7.73;53.46;99845.23;133863;1300;22487;-75
2023/03/12 12:19:37;;;;;;;;;;;;;;;7.61;53.30;99838.63;133794;1298;23215;-77
2023/03/12 12:22:46;;;;;;;;;;;;;;;7.52;53.82;99838.70;133827;1300;22507;-75
2023/03/12 12:25:55;;;;;;;;;;;;;;;7.47;53.26;99832.14;133802;1301;22445;-76
2023/03/12 12:29:10;;;;;;;;;;;;;;;7.36;52.82;99831.65;134214;1296;23258;-75
2023/03/12 12:32:31;;;;;;;;;;;;;;;7.20;52.06;99833.57;134171;1296;22507;-76
2023/03/12 12:35:39;;;;;;;;;;;;;;;7.04;51.59;99831.12;134316;1296;23223;-75
2023/03/12 12:38:45;;;;;;;;;;;;;;;7.01;52.60;99835.45;134140;1297;23865;-81
2023/03/12 12:41:50;;;;;;;;;;;;;;;6.98;52.69;99831.02;134080;1298;22486;-82
2023/03/12 12:44:54;;;;;;;;;;;;;;;6.94;52.49;99831.42;134133;1298;22461;-82
2023/03/12 12:48:01;;;;;;;;;;;;;;;6.80;52.46;99835.23;134296;1297;22572;-82
2023/03/12 12:51:14;;;;;;;;;;;;;;;6.68;52.93;99832.01;134339;1297;22509;-82
2023/03/12 12:54:15;;;;;;;;;;;;;;;6.62;52.58;99835.55;134107;1296;22439;-81
2023/03/12 12:57:22;;;;;;;;;;;;;;;6.51;52.21;99832.42;134340;1296;22468;-81
2023/03/12 13:00:38;;;;;;;;;;;;;;;6.53;52.45;99824.72;134311;1295;23199;-82
2023/03/12 13:03:42;;;;;;;;;;;;;;;6.50;52.38;99827.56;134318;1297;22446;-82
2023/03/12 13:06:52;;;;;;;;;;;;;;;6.48;52.94;99825.11;134312;1296;22544;-83
2023/03/12 13:09:56;;;;;;;;;;;;;;;6.50;52.79;99827.61;134193;1297;22448;-83
2023/03/12 13:12:56;;;;;;;;;;;;;;;6.47;52.59;99822.91;134348;1297;22441;-80
2023/03/12 13:16:25;;;;;;;;;;;;;;;6.44;52.60;99818.50;134338;1297;22562;-82
2023/03/12 13:19:26;;;;;;;;;;;;;;;6.43;52.33;99813.86;134301;1304;22486;-83
2023/03/12 13:22:50;;;;;;;;;;;;;;;6.45;52.60;99813.84;134336;1297;22458;-81
2023/03/12 13:26:19;;;;;;;;;;;;;;;6.46;52.21;99805.81;134253;1297;22536;-83
2023/03/12 13:29:39;;;;;;;;;;;;;;;6.44;52.75;99809.21;134294;1296;22440;-82
2023/03/12 13:33:00;;;;;;;;;;;;;;;6.47;52.78;99806.27;134324;1291;22462;-84
2023/03/12 13:36:24;;;;;;;;;;;;;;;6.43;52.37;99804.58;134192;1301;22488;-83
2023/03/12 13:39:30;;;;;;;;;;;;;;;6.33;52.70;99809.90;134321;1297;23087;-82
2023/03/12 13:42:40;;;;;;;;;;;;;;;6.27;52.53;99810.59;134317;1296;22536;-83
2023/03/12 13:45:47;;;;;;;;;;;;;;;6.27;52.92;99814.11;134320;1295;22462;-83
2023/03/12 13:48:51;;;;;;;;;;;;;;;6.25;52.38;99815.55;134087;1300;22462;-83
2023/03/12 13:51:57;;;;;;;;;;;;;;;6.16;51.83;99821.13;134169;1297;23327;-83
2023/03/12 13:55:01;;;;;;;;;;;;;;;6.10;52.02;99820.38;134304;1297;22453;-80
2023/03/12 13:58:22;;;;;;;;;;;;;;;;;;;;;
2023/03/12 14:01:26;;;;;;;;;;;;;;;6.06;52.05;99814.54;134326;1301;23050;-83
2023/03/12 14:04:45;;;;;;;;;;;;;;;6.02;51.89;99808.50;134325;1297;23083;-87
2023/03/12 14:07:54;;;;;;;;;;;;;;;6.03;52.51;99806.58;134325;1303;22500;-85
2023/03/12 14:10:57;;;;;;;;;;;;;;;6.07;52.52;99809.56;134334;1296;22495;-83
2023/03/12 14:14:16;;;;;;;;;;;;;;;6.15;52.61;99811.47;134359;1298;22454;-84
2023/03/12 14:17:43;;;;;;;;;;;;;;;6.17;52.61;99814.20;134257;1297;22525;-79
2023/03/12 14:20:53;;;;;;;;;;;;;;;6.11;52.26;99810.63;134264;1297;22543;-75
2023/03/12 14:24:07;;;;;;;;;;;;;;;6.04;52.10;99807.02;134314;1296;22477;-74
2023/03/12 14:27:20;;;;;;;;;;;;;;;5.98;51.76;99811.12;134314;1298;22412;-77
2023/03/12 14:30:38;;;;;;;;;;;;;;;5.93;52.15;99807.02;133927;1296;516333;-80
2023/03/12 14:33:48;;;;;;;;;;;;;;;5.92;52.24;99805.98;134299;1298;22471;-74
2023/03/12 14:37:04;;;;;;;;;;;;;;;5.91;52.31;99809.98;134180;1300;22461;-74
2023/03/12 14:40:11;;;;;;;;;;;;;;;5.91;52.03;99805.42;134292;1291;23225;-72
2023/03/12 14:43:34;;;;;;;;;;;;;;;5.90;52.91;99806.06;134202;1304;22451;-72
2023/03/12 14:46:46;;;;;;;;;;;;;;;5.88;52.81;99805.52;134183;1298;22441;-79
2023/03/12 14:50:10;;;;;;;;;;;;;;;5.88;53.30;99807.43;134000;1301;23264;-85
2023/03/12 14:53:18;;;;;;;;;;;;;;;5.85;53.01;99805.78;134229;1297;22530;-83
2023/03/12 14:56:26;;;;;;;;;;;;;;;5.79;53.15;99802.61;134188;1298;23702;-85
2023/03/12 15:00:04;;;;;;;;;;;;;;;;;;;;;
2023/03/12 15:07:46;;;;;;;;;;;;;;;;;;;;;
2023/03/12 15:11:46;;;;;;;;;;;;;;;;;;;;;
2023/03/12 15:15:40;;;;;;;;;;;;;;;;;;;;;
2023/03/12 15:18:45;;;;;;;;;;;;;;;5.60;53.83;99771.58;134196;1298;22599;-90
2023/03/12 15:21:59;;;;;;;;;;;;;;;5.55;53.68;99771.37;134147;1297;22465;-89
2023/03/12 15:25:43;;;;;;;;;;;;;;;5.54;54.04;99774.25;134293;1295;22637;-89
2023/03/12 15:29:26;;;;;;;;;;;;;;;;;;;;;
2023/03/12 15:33:17;;;;;;;;;;;;;;;;;;;;;
2023/03/12 15:37:05;;;;;;;;;;;;;;;;;;;;;
2023/03/12 15:40:44;;;;;;;;;;;;;;;5.50;54.29;99758.86;134084;1297;22478;-87
2023/03/12 15:45:01;;;;;;;;;;;;;;;5.43;54.04;99763.39;134255;1297;22556;-88
2023/03/12 15:48:07;;;;;;;;;;;;;;;;;;;;;
2023/03/12 15:52:25;;;;;;;;;;;;;;;;;;;;;
2023/03/12 15:56:08;;;;;;;;;;;;;;;;;;;;;
2023/03/12 15:59:36;;;;;;;;;;;;;;;;;;;;;
2023/03/12 16:03:39;;;;;;;;;;;;;;;;;;;;;
2023/03/12 16:06:55;;;;;;;;;;;;;;;5.07;53.53;99746.86;134262;1297;22459;-86
2023/03/12 16:10:01;;;;;;;;;;;;;;;5.00;53.08;99728.42;134128;1302;22493;-83
2023/03/12 16:13:41;;;;;;;;;;;;;;;;;;;;;
2023/03/12 16:17:02;;;;;;;;;;;;;;;4.84;53.06;99716.02;134232;1298;22533;-81
2023/03/12 16:20:27;;;;;;;;;;;;;;;;;;;;;
2023/03/12 16:23:44;;;;;;;;;;;;;;;4.69;52.32;99706.48;134039;1298;22468;-80
2023/03/12 16:26:50;;;;;;;;;;;;;;;4.60;51.86;99721.20;134283;1297;22453;-80
2023/03/12 16:30:09;;;;;;;;;;;;;;;4.51;51.85;99735.88;134166;1297;22458;-80
2023/03/12 16:33:36;;;;;;;;;;;;;;;;;;;;;
2023/03/12 16:36:45;;;;;;;;;;;;;;;4.32;51.71;99738.53;134093;1298;22518;-79
2023/03/12 16:39:47;;;;;;;;;;;;;;;4.25;51.56;99731.31;134188;1297;22449;-82
2023/03/12 16:42:49;;;;;;;;;;;;;;;4.20;51.66;99726.63;134244;1295;22461;-81
2023/03/12 16:45:59;;;;;;;;;;;;;;;4.17;51.61;99719.08;134168;1297;22573;-80
2023/03/12 16:49:00;;;;;;;;;;;;;;;4.13;51.54;99724.88;134272;1297;22528;-80
2023/03/12 16:53:03;;;;;;;;;;;;;;;4.10;51.88;99731.27;134262;1297;22517;-81
2023/03/12 16:56:15;;;;;;;;;;;;;;;4.07;51.92;99726.30;134204;1297;23479;-83
2023/03/12 16:59:43;;;;;;;;;;;;;;;;;;;;;
2023/03/12 17:02:56;;;;;;;;;;;;;;;4.04;52.15;99739.42;134276;1297;23249;-82
2023/03/12 17:06:12;;;;;;;;;;;;;;;4.02;52.06;99738.58;134194;1295;23204;-83
2023/03/12 17:09:28;;;;;;;;;;;;;;;4.01;52.30;99738.14;134231;1298;22533;-82
2023/03/12 17:12:40;;;;;;;;;;;;;;;4.00;52.31;99732.94;134242;1296;22459;-81
2023/03/12 17:15:40;;;;;;;;;;;;;;;3.98;52.46;99736.85;134158;1297;22507;-81
2023/03/12 17:18:41;;;;;;;;;;;;;;;3.94;52.66;99744.01;134151;1297;23560;-82
2023/03/12 17:21:45;;;;;;;;;;;;;;;3.90;52.89;99755.86;133954;1300;22488;-82
2023/03/12 17:24:46;;;;;;;;;;;;;;;3.88;52.90;99757.96;134230;1295;22654;-82
2023/03/12 17:27:46;;;;;;;;;;;;;;;3.86;53.22;99758.48;134281;1297;22463;-81
2023/03/12 17:30:50;;;;;;;;;;;;;;;3.84;53.22;99754.33;134263;1296;22462;-82
2023/03/12 17:33:56;;;;;;;;;;;;;;;3.81;53.17;99752.25;134061;1293;22472;-82
2023/03/12 17:37:20;;;;;;;;;;;;;;;3.77;53.31;99748.83;134249;1296;22578;-82
2023/03/12 17:40:42;;;;;;;;;;;;;;;3.71;53.34;99739.14;134110;1296;22495;-81
2023/03/12 17:43:46;;;;;;;;;;;;;;;3.64;53.44;99721.95;134275;1295;23267;-81
2023/03/12 17:46:49;;;;;;;;;;;;;;;3.58;53.73;99722.82;134268;1297;22466;-82
2023/03/12 17:49:50;;;;;;;;;;;;;;;3.55;53.70;99731.80;134214;1296;23507;-81
2023/03/12 17:52:57;;;;;;;;;;;;;;;3.53;54.05;99739.09;134229;1297;22470;-81
2023/03/12 17:55:57;;;;;;;;;;;;;;;3.52;54.23;99743.20;134227;1298;22464;-78
2023/03/12 17:58:59;;;;;;;;;;;;;;;3.51;54.38;99751.70;134295;1297;22461;-78
2023/03/12 18:02:23;;;;;;;;;;;;;;;3.49;54.31;99743.50;134169;1297;22497;-78
2023/03/12 18:05:51;;;;;;;;;;;;;;;;;;;;;
2023/03/12 18:09:10;;;;;;;;;;;;;;;3.44;54.59;99738.70;134225;1297;22471;-82
2023/03/12 18:12:38;;;;;;;;;;;;;;;3.41;54.93;99735.91;134233;1297;22442;-82
2023/03/12 18:15:40;;;;;;;;;;;;;;;3.40;55.06;99724.20;134047;1297;23243;-82
2023/03/12 18:18:42;;;;;;;;;;;;;;;3.37;55.05;99709.66;134224;1296;22545;-82
2023/03/12 18:21:49;;;;;;;;;;;;;;;3.35;54.73;99702.54;134211;1297;22523;-82
2023/03/12 18:25:15;;;;;;;;;;;;;;;3.33;55.06;99701.66;133552;1301;22473;-82
2023/03/12 18:28:19;;;;;;;;;;;;;;;3.32;55.23;99698.95;133526;1301;22528;-83
2023/03/12 18:31:40;;;;;;;;;;;;;;;3.30;55.40;99695.92;133560;1301;25065;-82
2023/03/12 18:35:04;;;;;;;;;;;;;;;3.29;55.56;99710.02;133457;1302;22485;-82
2023/03/12 18:38:14;;;;;;;;;;;;;;;;;;;;;
2023/03/12 18:41:21;;;;;;;;;;;;;;;3.29;55.63;99709.11;133564;1301;22498;-82
2023/03/12 18:44:22;;;;;;;;;;;;;;;3.30;55.67;99713.96;133564;1302;23280;-81
2023/03/12 18:47:22;;;;;;;;;;;;;;;3.31;55.98;99716.00;133550;1301;23282;-82
2023/03/12 18:50:23;;;;;;;;;;;;;;;3.32;56.19;99714.30;133960;1298;22540;-81
2023/03/12 18:53:35;;;;;;;;;;;;;;;;;;;;;
2023/03/12 18:57:18;;;;;;;;;;;;;;;3.34;56.38;99713.41;134093;1297;22564;-82